sensor_id;sensor_type;location;lat;lon;timestamp;P1;durP1;ratioP1;P2;durP2;ratioP2
51913;SDS011;37940;53.002;6.930;2022-08-01T00:00:26;18.92;;;11.18;;
51913;SDS011;37940;53.002;6.930;2022-08-01T00:02:51;15.02;;;10.45;;
51913;SDS011;37940;53.002;6.930;2022-08-01T00:05:17;16.40;;;10.63;;
51913;SDS011;37940;53.002;6.930;2022-08-01T00:07:43;22.88;;;12.27;;
51913;SDS011;37940;53.002;6.930;2022-08-01T00:10:11;14.27;;;8.98;;
51913;SDS011;37940;53.002;6.930;2022-08-01T00:12:38;18.05;;;10.63;;
51913;SDS011;37940;53.002;6.930;2022-08-01T00:15:05;15.63;;;10.02;;
51913;SDS011;37940;53.002;6.930;2022-08-01T00:17:32;14.00;;;8.95;;
51913;SDS011;37940;53.002;6.930;2022-08-01T00:19:58;13.00;;;7.88;;
51913;SDS011;37940;53.002;6.930;2022-08-01T00:22:24;12.23;;;7.90;;
51913;SDS011;37940;53.002;6.930;2022-08-01T00:24:50;12.20;;;7.22;;
51913;SDS011;37940;53.002;6.930;2022-08-01T00:27:16;10.40;;;7.35;;
51913;SDS011;37940;53.002;6.930;2022-08-01T00:29:42;12.25;;;7.45;;
51913;SDS011;37940;53.002;6.930;2022-08-01T00:32:07;13.65;;;6.90;;
51913;SDS011;37940;53.002;6.930;2022-08-01T00:34:33;11.75;;;6.90;;
51913;SDS011;37940;53.002;6.930;2022-08-01T00:36:59;12.85;;;7.25;;
51913;SDS011;37940;53.002;6.930;2022-08-01T00:39:24;13.45;;;8.27;;
51913;SDS011;37940;53.002;6.930;2022-08-01T00:41:50;14.35;;;8.60;;
51913;SDS011;37940;53.002;6.930;2022-08-01T00:44:16;13.02;;;7.60;;
51913;SDS011;37940;53.002;6.930;2022-08-01T00:46:42;11.27;;;7.38;;
51913;SDS011;37940;53.002;6.930;2022-08-01T00:49:07;16.13;;;9.50;;
51913;SDS011;37940;53.002;6.930;2022-08-01T00:51:33;12.25;;;7.95;;
51913;SDS011;37940;53.002;6.930;2022-08-01T00:53:59;14.80;;;8.88;;
51913;SDS011;37940;53.002;6.930;2022-08-01T00:56:26;21.33;;;10.40;;
51913;SDS011;37940;53.002;6.930;2022-08-01T00:58:53;19.35;;;9.80;;
51913;SDS011;37940;53.002;6.930;2022-08-01T01:01:19;15.63;;;9.48;;
51913;SDS011;37940;53.002;6.930;2022-08-01T01:03:47;14.07;;;8.63;;
51913;SDS011;37940;53.002;6.930;2022-08-01T01:11:44;14.23;;;8.82;;
51913;SDS011;37940;53.002;6.930;2022-08-01T01:14:13;16.38;;;10.30;;
51913;SDS011;37940;53.002;6.930;2022-08-01T01:16:48;13.23;;;8.85;;
51913;SDS011;37940;53.002;6.930;2022-08-01T01:19:16;14.00;;;9.13;;
51913;SDS011;37940;53.002;6.930;2022-08-01T01:30:21;23.80;;;9.95;;
51913;SDS011;37940;53.002;6.930;2022-08-01T01:32:49;17.92;;;9.48;;
51913;SDS011;37940;53.002;6.930;2022-08-01T01:35:19;17.83;;;9.25;;
51913;SDS011;37940;53.002;6.930;2022-08-01T01:37:49;17.35;;;8.60;;
51913;SDS011;37940;53.002;6.930;2022-08-01T01:40:21;14.25;;;7.63;;
51913;SDS011;37940;53.002;6.930;2022-08-01T01:42:47;17.15;;;9.20;;
51913;SDS011;37940;53.002;6.930;2022-08-01T01:45:15;14.77;;;7.35;;
51913;SDS011;37940;53.002;6.930;2022-08-01T01:47:42;14.10;;;7.97;;
51913;SDS011;37940;53.002;6.930;2022-08-01T01:50:09;11.10;;;7.75;;
51913;SDS011;37940;53.002;6.930;2022-08-01T01:52:38;11.15;;;6.50;;
51913;SDS011;37940;53.002;6.930;2022-08-01T01:55:05;14.38;;;7.60;;
51913;SDS011;37940;53.002;6.930;2022-08-01T01:57:35;14.70;;;7.03;;
51913;SDS011;37940;53.002;6.930;2022-08-01T02:00:04;12.57;;;6.97;;
51913;SDS011;37940;53.002;6.930;2022-08-01T02:02:32;15.18;;;7.05;;
51913;SDS011;37940;53.002;6.930;2022-08-01T02:04:59;14.27;;;7.68;;
51913;SDS011;37940;53.002;6.930;2022-08-01T02:07:26;13.60;;;6.15;;
51913;SDS011;37940;53.002;6.930;2022-08-01T02:09:53;13.82;;;6.60;;
51913;SDS011;37940;53.002;6.930;2022-08-01T02:12:20;11.80;;;6.35;;
51913;SDS011;37940;53.002;6.930;2022-08-01T02:14:47;9.15;;;6.25;;
51913;SDS011;37940;53.002;6.930;2022-08-01T02:17:18;10.43;;;6.22;;
51913;SDS011;37940;53.002;6.930;2022-08-01T02:19:45;13.20;;;6.07;;
51913;SDS011;37940;53.002;6.930;2022-08-01T02:24:59;10.80;;;5.90;;
51913;SDS011;37940;53.002;6.930;2022-08-01T02:27:30;12.18;;;5.50;;
51913;SDS011;37940;53.002;6.930;2022-08-01T02:30:05;10.98;;;4.85;;
51913;SDS011;37940;53.002;6.930;2022-08-01T02:32:38;12.38;;;5.55;;
51913;SDS011;37940;53.002;6.930;2022-08-01T02:35:09;8.27;;;5.00;;
51913;SDS011;37940;53.002;6.930;2022-08-01T02:37:51;13.23;;;5.63;;
51913;SDS011;37940;53.002;6.930;2022-08-01T02:40:20;9.93;;;5.22;;
51913;SDS011;37940;53.002;6.930;2022-08-01T02:42:50;8.43;;;4.35;;
51913;SDS011;37940;53.002;6.930;2022-08-01T02:45:17;12.25;;;4.82;;
51913;SDS011;37940;53.002;6.930;2022-08-01T02:47:45;8.68;;;4.13;;
51913;SDS011;37940;53.002;6.930;2022-08-01T02:50:14;8.63;;;3.88;;
51913;SDS011;37940;53.002;6.930;2022-08-01T02:52:42;16.90;;;5.55;;
51913;SDS011;37940;53.002;6.930;2022-08-01T02:55:11;12.80;;;4.90;;
51913;SDS011;37940;53.002;6.930;2022-08-01T02:57:38;9.85;;;3.90;;
51913;SDS011;37940;53.002;6.930;2022-08-01T03:00:04;8.48;;;3.95;;
51913;SDS011;37940;53.002;6.930;2022-08-01T03:02:32;9.10;;;3.40;;
51913;SDS011;37940;53.002;6.930;2022-08-01T03:05:00;9.75;;;3.60;;
51913;SDS011;37940;53.002;6.930;2022-08-01T03:07:27;11.30;;;3.42;;
51913;SDS011;37940;53.002;6.930;2022-08-01T03:09:54;12.82;;;3.30;;
51913;SDS011;37940;53.002;6.930;2022-08-01T03:12:23;7.65;;;2.80;;
51913;SDS011;37940;53.002;6.930;2022-08-01T03:14:53;10.80;;;3.47;;
51913;SDS011;37940;53.002;6.930;2022-08-01T03:17:22;9.75;;;3.47;;
51913;SDS011;37940;53.002;6.930;2022-08-01T03:19:50;11.18;;;3.67;;
51913;SDS011;37940;53.002;6.930;2022-08-01T03:22:17;10.07;;;3.47;;
51913;SDS011;37940;53.002;6.930;2022-08-01T03:24:47;12.43;;;3.53;;
51913;SDS011;37940;53.002;6.930;2022-08-01T03:27:17;12.15;;;3.80;;
51913;SDS011;37940;53.002;6.930;2022-08-01T03:29:45;8.23;;;3.35;;
51913;SDS011;37940;53.002;6.930;2022-08-01T03:32:11;9.52;;;3.28;;
51913;SDS011;37940;53.002;6.930;2022-08-01T03:34:38;10.70;;;3.40;;
51913;SDS011;37940;53.002;6.930;2022-08-01T03:37:21;10.93;;;3.38;;
51913;SDS011;37940;53.002;6.930;2022-08-01T03:40:04;9.40;;;3.55;;
51913;SDS011;37940;53.002;6.930;2022-08-01T03:42:53;10.52;;;3.33;;
51913;SDS011;37940;53.002;6.930;2022-08-01T03:45:27;8.52;;;3.50;;
51913;SDS011;37940;53.002;6.930;2022-08-01T03:47:59;13.25;;;4.57;;
51913;SDS011;37940;53.002;6.930;2022-08-01T03:50:28;13.77;;;3.72;;
51913;SDS011;37940;53.002;6.930;2022-08-01T03:52:59;8.40;;;3.88;;
51913;SDS011;37940;53.002;6.930;2022-08-01T03:55:27;16.35;;;4.60;;
51913;SDS011;37940;53.002;6.930;2022-08-01T03:57:53;14.15;;;3.60;;
51913;SDS011;37940;53.002;6.930;2022-08-01T04:00:19;15.05;;;4.25;;
51913;SDS011;37940;53.002;6.930;2022-08-01T04:02:46;13.98;;;3.72;;
51913;SDS011;37940;53.002;6.930;2022-08-01T04:05:15;12.57;;;4.05;;
51913;SDS011;37940;53.002;6.930;2022-08-01T04:07:44;11.73;;;3.42;;
51913;SDS011;37940;53.002;6.930;2022-08-01T04:10:12;13.32;;;3.80;;
51913;SDS011;37940;53.002;6.930;2022-08-01T04:12:38;11.02;;;3.47;;
51913;SDS011;37940;53.002;6.930;2022-08-01T04:15:04;15.32;;;4.00;;
51913;SDS011;37940;53.002;6.930;2022-08-01T04:17:31;16.08;;;4.28;;
51913;SDS011;37940;53.002;6.930;2022-08-01T04:19:57;14.27;;;4.70;;
51913;SDS011;37940;53.002;6.930;2022-08-01T04:22:23;12.60;;;4.43;;
51913;SDS011;37940;53.002;6.930;2022-08-01T04:24:49;13.20;;;4.95;;
51913;SDS011;37940;53.002;6.930;2022-08-01T04:27:20;18.80;;;5.47;;
51913;SDS011;37940;53.002;6.930;2022-08-01T04:29:52;13.38;;;4.68;;
51913;SDS011;37940;53.002;6.930;2022-08-01T04:32:20;12.65;;;4.43;;
51913;SDS011;37940;53.002;6.930;2022-08-01T04:34:48;12.90;;;4.90;;
51913;SDS011;37940;53.002;6.930;2022-08-01T04:37:15;10.80;;;4.53;;
51913;SDS011;37940;53.002;6.930;2022-08-01T04:39:42;11.68;;;4.90;;
51913;SDS011;37940;53.002;6.930;2022-08-01T04:42:10;11.00;;;5.20;;
51913;SDS011;37940;53.002;6.930;2022-08-01T04:44:38;16.88;;;5.57;;
51913;SDS011;37940;53.002;6.930;2022-08-01T04:47:04;14.00;;;5.18;;
51913;SDS011;37940;53.002;6.930;2022-08-01T04:49:32;11.88;;;5.10;;
51913;SDS011;37940;53.002;6.930;2022-08-01T04:51:59;10.63;;;5.28;;
51913;SDS011;37940;53.002;6.930;2022-08-01T04:54:29;15.18;;;6.22;;
51913;SDS011;37940;53.002;6.930;2022-08-01T04:56:58;14.68;;;5.63;;
51913;SDS011;37940;53.002;6.930;2022-08-01T04:59:27;16.80;;;5.25;;
51913;SDS011;37940;53.002;6.930;2022-08-01T05:02:09;16.25;;;5.00;;
51913;SDS011;37940;53.002;6.930;2022-08-01T05:04:37;16.40;;;5.35;;
51913;SDS011;37940;53.002;6.930;2022-08-01T05:07:04;17.95;;;5.85;;
51913;SDS011;37940;53.002;6.930;2022-08-01T05:09:30;13.15;;;5.00;;
51913;SDS011;37940;53.002;6.930;2022-08-01T05:11:57;11.07;;;4.32;;
51913;SDS011;37940;53.002;6.930;2022-08-01T05:14:27;19.05;;;5.68;;
51913;SDS011;37940;53.002;6.930;2022-08-01T05:16:53;14.07;;;4.35;;
51913;SDS011;37940;53.002;6.930;2022-08-01T05:19:19;15.35;;;4.22;;
51913;SDS011;37940;53.002;6.930;2022-08-01T05:21:46;14.13;;;4.28;;
51913;SDS011;37940;53.002;6.930;2022-08-01T05:24:12;17.10;;;4.40;;
51913;SDS011;37940;53.002;6.930;2022-08-01T05:26:38;17.55;;;4.60;;
51913;SDS011;37940;53.002;6.930;2022-08-01T05:29:04;17.25;;;3.80;;
51913;SDS011;37940;53.002;6.930;2022-08-01T05:31:30;18.38;;;4.65;;
51913;SDS011;37940;53.002;6.930;2022-08-01T05:33:59;17.48;;;4.20;;
51913;SDS011;37940;53.002;6.930;2022-08-01T05:36:25;24.08;;;4.63;;
51913;SDS011;37940;53.002;6.930;2022-08-01T05:38:51;17.35;;;4.68;;
51913;SDS011;37940;53.002;6.930;2022-08-01T05:41:17;20.85;;;4.30;;
51913;SDS011;37940;53.002;6.930;2022-08-01T05:43:43;21.75;;;4.15;;
51913;SDS011;37940;53.002;6.930;2022-08-01T05:46:09;16.08;;;4.35;;
51913;SDS011;37940;53.002;6.930;2022-08-01T05:48:35;17.35;;;4.28;;
51913;SDS011;37940;53.002;6.930;2022-08-01T05:51:01;19.00;;;4.38;;
51913;SDS011;37940;53.002;6.930;2022-08-01T05:53:27;27.27;;;4.68;;
51913;SDS011;37940;53.002;6.930;2022-08-01T05:55:53;20.52;;;4.20;;
51913;SDS011;37940;53.002;6.930;2022-08-01T05:58:19;23.80;;;4.20;;
51913;SDS011;37940;53.002;6.930;2022-08-01T06:00:45;17.75;;;4.43;;
51913;SDS011;37940;53.002;6.930;2022-08-01T06:03:11;22.05;;;3.75;;
51913;SDS011;37940;53.002;6.930;2022-08-01T06:05:36;22.35;;;4.45;;
51913;SDS011;37940;53.002;6.930;2022-08-01T06:08:03;16.90;;;4.40;;
51913;SDS011;37940;53.002;6.930;2022-08-01T06:10:29;19.90;;;4.32;;
51913;SDS011;37940;53.002;6.930;2022-08-01T06:12:54;17.70;;;3.90;;
51913;SDS011;37940;53.002;6.930;2022-08-01T06:15:20;18.65;;;4.15;;
51913;SDS011;37940;53.002;6.930;2022-08-01T06:17:46;16.15;;;4.78;;
51913;SDS011;37940;53.002;6.930;2022-08-01T06:20:12;21.58;;;5.28;;
51913;SDS011;37940;53.002;6.930;2022-08-01T06:22:38;21.33;;;4.47;;
51913;SDS011;37940;53.002;6.930;2022-08-01T06:25:03;20.10;;;4.22;;
51913;SDS011;37940;53.002;6.930;2022-08-01T06:27:30;19.73;;;4.28;;
51913;SDS011;37940;53.002;6.930;2022-08-01T06:29:55;17.75;;;3.88;;
51913;SDS011;37940;53.002;6.930;2022-08-01T06:32:22;19.13;;;4.22;;
51913;SDS011;37940;53.002;6.930;2022-08-01T06:34:48;18.95;;;4.28;;
51913;SDS011;37940;53.002;6.930;2022-08-01T06:37:14;19.90;;;4.70;;
51913;SDS011;37940;53.002;6.930;2022-08-01T06:39:40;23.92;;;5.03;;
51913;SDS011;37940;53.002;6.930;2022-08-01T06:42:06;21.92;;;4.32;;
51913;SDS011;37940;53.002;6.930;2022-08-01T06:44:32;20.45;;;4.40;;
51913;SDS011;37940;53.002;6.930;2022-08-01T06:46:57;21.08;;;4.40;;
51913;SDS011;37940;53.002;6.930;2022-08-01T06:49:23;12.68;;;4.00;;
51913;SDS011;37940;53.002;6.930;2022-08-01T06:51:49;14.20;;;3.80;;
51913;SDS011;37940;53.002;6.930;2022-08-01T06:54:15;15.63;;;4.22;;
51913;SDS011;37940;53.002;6.930;2022-08-01T06:56:41;19.08;;;3.97;;
51913;SDS011;37940;53.002;6.930;2022-08-01T06:59:07;16.95;;;4.05;;
51913;SDS011;37940;53.002;6.930;2022-08-01T07:01:34;16.58;;;3.92;;
51913;SDS011;37940;53.002;6.930;2022-08-01T07:03:59;19.20;;;4.22;;
51913;SDS011;37940;53.002;6.930;2022-08-01T07:06:26;17.52;;;3.92;;
51913;SDS011;37940;53.002;6.930;2022-08-01T07:08:52;20.63;;;3.75;;
51913;SDS011;37940;53.002;6.930;2022-08-01T07:11:18;18.02;;;3.95;;
51913;SDS011;37940;53.002;6.930;2022-08-01T07:13:44;13.90;;;3.65;;
51913;SDS011;37940;53.002;6.930;2022-08-01T07:16:16;13.65;;;3.30;;
51913;SDS011;37940;53.002;6.930;2022-08-01T07:18:42;16.67;;;3.40;;
51913;SDS011;37940;53.002;6.930;2022-08-01T07:21:08;15.90;;;3.92;;
51913;SDS011;37940;53.002;6.930;2022-08-01T07:23:34;15.77;;;3.53;;
51913;SDS011;37940;53.002;6.930;2022-08-01T07:25:59;15.25;;;3.55;;
51913;SDS011;37940;53.002;6.930;2022-08-01T07:28:27;17.13;;;3.85;;
51913;SDS011;37940;53.002;6.930;2022-08-01T07:30:53;13.38;;;3.17;;
51913;SDS011;37940;53.002;6.930;2022-08-01T07:33:19;13.75;;;3.60;;
51913;SDS011;37940;53.002;6.930;2022-08-01T07:35:44;15.77;;;3.20;;
51913;SDS011;37940;53.002;6.930;2022-08-01T07:38:10;14.77;;;3.63;;
51913;SDS011;37940;53.002;6.930;2022-08-01T07:40:36;15.30;;;3.63;;
51913;SDS011;37940;53.002;6.930;2022-08-01T07:43:02;18.40;;;3.53;;
51913;SDS011;37940;53.002;6.930;2022-08-01T07:45:27;17.30;;;3.53;;
51913;SDS011;37940;53.002;6.930;2022-08-01T07:47:53;14.88;;;3.35;;
51913;SDS011;37940;53.002;6.930;2022-08-01T07:50:19;15.48;;;3.25;;
51913;SDS011;37940;53.002;6.930;2022-08-01T07:52:45;14.50;;;3.72;;
51913;SDS011;37940;53.002;6.930;2022-08-01T07:55:11;13.02;;;3.88;;
51913;SDS011;37940;53.002;6.930;2022-08-01T07:57:37;14.63;;;3.70;;
51913;SDS011;37940;53.002;6.930;2022-08-01T08:00:03;16.40;;;3.50;;
51913;SDS011;37940;53.002;6.930;2022-08-01T08:02:30;13.10;;;3.60;;
51913;SDS011;37940;53.002;6.930;2022-08-01T08:04:56;10.45;;;2.80;;
51913;SDS011;37940;53.002;6.930;2022-08-01T08:07:22;14.13;;;4.15;;
51913;SDS011;37940;53.002;6.930;2022-08-01T08:09:47;15.88;;;3.05;;
51913;SDS011;37940;53.002;6.930;2022-08-01T08:12:13;19.75;;;3.10;;
51913;SDS011;37940;53.002;6.930;2022-08-01T08:14:39;18.02;;;3.22;;
51913;SDS011;37940;53.002;6.930;2022-08-01T08:17:05;14.80;;;3.03;;
51913;SDS011;37940;53.002;6.930;2022-08-01T08:19:31;16.35;;;3.30;;
51913;SDS011;37940;53.002;6.930;2022-08-01T08:21:58;14.40;;;3.08;;
51913;SDS011;37940;53.002;6.930;2022-08-01T08:24:25;15.90;;;2.90;;
51913;SDS011;37940;53.002;6.930;2022-08-01T08:26:59;13.50;;;3.60;;
51913;SDS011;37940;53.002;6.930;2022-08-01T08:29:26;14.23;;;3.25;;
51913;SDS011;37940;53.002;6.930;2022-08-01T08:31:54;14.85;;;3.50;;
51913;SDS011;37940;53.002;6.930;2022-08-01T08:34:21;14.43;;;3.20;;
51913;SDS011;37940;53.002;6.930;2022-08-01T08:36:47;16.67;;;3.13;;
51913;SDS011;37940;53.002;6.930;2022-08-01T08:39:16;9.68;;;2.83;;
51913;SDS011;37940;53.002;6.930;2022-08-01T08:41:42;14.32;;;3.15;;
51913;SDS011;37940;53.002;6.930;2022-08-01T08:44:08;12.38;;;2.78;;
51913;SDS011;37940;53.002;6.930;2022-08-01T08:46:38;16.05;;;3.08;;
51913;SDS011;37940;53.002;6.930;2022-08-01T08:49:08;13.90;;;2.80;;
51913;SDS011;37940;53.002;6.930;2022-08-01T08:51:34;14.85;;;2.97;;
51913;SDS011;37940;53.002;6.930;2022-08-01T08:54:03;16.20;;;3.25;;
51913;SDS011;37940;53.002;6.930;2022-08-01T08:56:31;12.73;;;2.55;;
51913;SDS011;37940;53.002;6.930;2022-08-01T08:58:59;13.52;;;3.03;;
51913;SDS011;37940;53.002;6.930;2022-08-01T09:01:27;11.88;;;2.40;;
51913;SDS011;37940;53.002;6.930;2022-08-01T09:03:52;11.85;;;2.63;;
51913;SDS011;37940;53.002;6.930;2022-08-01T09:06:19;11.35;;;2.92;;
51913;SDS011;37940;53.002;6.930;2022-08-01T09:08:45;14.38;;;2.40;;
51913;SDS011;37940;53.002;6.930;2022-08-01T09:11:11;11.75;;;2.20;;
51913;SDS011;37940;53.002;6.930;2022-08-01T09:13:37;12.27;;;2.95;;
51913;SDS011;37940;53.002;6.930;2022-08-01T09:16:02;10.30;;;2.53;;
51913;SDS011;37940;53.002;6.930;2022-08-01T09:21:10;13.57;;;2.75;;
51913;SDS011;37940;53.002;6.930;2022-08-01T09:23:43;10.98;;;2.60;;
51913;SDS011;37940;53.002;6.930;2022-08-01T09:26:15;11.48;;;2.63;;
51913;SDS011;37940;53.002;6.930;2022-08-01T09:28:43;12.45;;;2.47;;
51913;SDS011;37940;53.002;6.930;2022-08-01T09:31:11;16.35;;;2.67;;
51913;SDS011;37940;53.002;6.930;2022-08-01T09:36:42;12.68;;;2.65;;
51913;SDS011;37940;53.002;6.930;2022-08-01T09:39:23;15.85;;;2.60;;
51913;SDS011;37940;53.002;6.930;2022-08-01T09:41:52;8.57;;;1.90;;
51913;SDS011;37940;53.002;6.930;2022-08-01T09:44:25;11.60;;;2.63;;
51913;SDS011;37940;53.002;6.930;2022-08-01T09:47:05;11.27;;;2.60;;
51913;SDS011;37940;53.002;6.930;2022-08-01T09:49:32;9.40;;;2.30;;
51913;SDS011;37940;53.002;6.930;2022-08-01T09:52:00;9.57;;;2.42;;
51913;SDS011;37940;53.002;6.930;2022-08-01T09:54:53;9.68;;;2.35;;
51913;SDS011;37940;53.002;6.930;2022-08-01T09:57:27;9.13;;;2.33;;
51913;SDS011;37940;53.002;6.930;2022-08-01T09:59:55;10.20;;;2.17;;
51913;SDS011;37940;53.002;6.930;2022-08-01T10:02:29;11.40;;;2.40;;
51913;SDS011;37940;53.002;6.930;2022-08-01T10:04:55;9.00;;;2.10;;
51913;SDS011;37940;53.002;6.930;2022-08-01T10:07:20;10.82;;;2.30;;
51913;SDS011;37940;53.002;6.930;2022-08-01T10:09:47;12.82;;;2.10;;
51913;SDS011;37940;53.002;6.930;2022-08-01T10:12:17;10.75;;;2.45;;
51913;SDS011;37940;53.002;6.930;2022-08-01T10:14:46;8.68;;;2.20;;
51913;SDS011;37940;53.002;6.930;2022-08-01T10:17:17;9.85;;;1.95;;
51913;SDS011;37940;53.002;6.930;2022-08-01T10:19:44;8.52;;;2.40;;
51913;SDS011;37940;53.002;6.930;2022-08-01T10:22:11;8.00;;;2.08;;
51913;SDS011;37940;53.002;6.930;2022-08-01T10:24:42;8.43;;;2.15;;
51913;SDS011;37940;53.002;6.930;2022-08-01T10:27:11;12.30;;;2.60;;
51913;SDS011;37940;53.002;6.930;2022-08-01T10:29:46;10.38;;;2.75;;
51913;SDS011;37940;53.002;6.930;2022-08-01T10:32:20;9.13;;;2.42;;
51913;SDS011;37940;53.002;6.930;2022-08-01T10:34:46;9.68;;;2.00;;
51913;SDS011;37940;53.002;6.930;2022-08-01T10:37:17;7.82;;;2.17;;
51913;SDS011;37940;53.002;6.930;2022-08-01T10:39:43;11.02;;;2.25;;
51913;SDS011;37940;53.002;6.930;2022-08-01T10:42:09;10.05;;;2.22;;
51913;SDS011;37940;53.002;6.930;2022-08-01T10:44:36;9.95;;;2.17;;
51913;SDS011;37940;53.002;6.930;2022-08-01T10:47:08;7.45;;;2.10;;
51913;SDS011;37940;53.002;6.930;2022-08-01T10:49:39;12.75;;;2.15;;
51913;SDS011;37940;53.002;6.930;2022-08-01T10:52:25;7.70;;;2.13;;
51913;SDS011;37940;53.002;6.930;2022-08-01T10:55:01;10.50;;;2.00;;
51913;SDS011;37940;53.002;6.930;2022-08-01T11:00:18;8.02;;;1.83;;
51913;SDS011;37940;53.002;6.930;2022-08-01T11:02:58;7.97;;;1.80;;
51913;SDS011;37940;53.002;6.930;2022-08-01T11:05:30;7.93;;;2.10;;
51913;SDS011;37940;53.002;6.930;2022-08-01T11:07:58;9.10;;;2.00;;
51913;SDS011;37940;53.002;6.930;2022-08-01T11:10:38;12.07;;;2.90;;
51913;SDS011;37940;53.002;6.930;2022-08-01T11:13:06;7.97;;;1.83;;
51913;SDS011;37940;53.002;6.930;2022-08-01T11:15:36;7.70;;;2.10;;
51913;SDS011;37940;53.002;6.930;2022-08-01T11:21:00;8.35;;;1.90;;
51913;SDS011;37940;53.002;6.930;2022-08-01T11:23:27;9.95;;;2.30;;
51913;SDS011;37940;53.002;6.930;2022-08-01T11:28:21;9.70;;;1.70;;
51913;SDS011;37940;53.002;6.930;2022-08-01T11:31:23;8.90;;;1.70;;
51913;SDS011;37940;53.002;6.930;2022-08-01T11:38:35;9.43;;;2.20;;
51913;SDS011;37940;53.002;6.930;2022-08-01T11:41:25;6.57;;;1.85;;
51913;SDS011;37940;53.002;6.930;2022-08-01T11:43:56;8.02;;;2.00;;
51913;SDS011;37940;53.002;6.930;2022-08-01T11:54:37;7.78;;;2.00;;
51913;SDS011;37940;53.002;6.930;2022-08-01T11:57:05;8.63;;;2.05;;
51913;SDS011;37940;53.002;6.930;2022-08-01T11:59:36;10.50;;;2.10;;
51913;SDS011;37940;53.002;6.930;2022-08-01T12:04:48;6.28;;;1.67;;
51913;SDS011;37940;53.002;6.930;2022-08-01T12:07:16;8.90;;;2.20;;
51913;SDS011;37940;53.002;6.930;2022-08-01T12:09:42;7.13;;;1.80;;
51913;SDS011;37940;53.002;6.930;2022-08-01T12:12:09;8.27;;;2.08;;
51913;SDS011;37940;53.002;6.930;2022-08-01T12:14:35;9.40;;;2.10;;
51913;SDS011;37940;53.002;6.930;2022-08-01T12:17:01;8.48;;;2.35;;
51913;SDS011;37940;53.002;6.930;2022-08-01T12:19:27;9.07;;;1.95;;
51913;SDS011;37940;53.002;6.930;2022-08-01T12:24:35;10.70;;;2.20;;
51913;SDS011;37940;53.002;6.930;2022-08-01T12:27:03;9.38;;;1.80;;
51913;SDS011;37940;53.002;6.930;2022-08-01T12:29:33;5.40;;;1.63;;
51913;SDS011;37940;53.002;6.930;2022-08-01T12:32:00;8.13;;;1.80;;
51913;SDS011;37940;53.002;6.930;2022-08-01T12:34:30;8.90;;;2.05;;
51913;SDS011;37940;53.002;6.930;2022-08-01T12:36:59;10.67;;;2.23;;
51913;SDS011;37940;53.002;6.930;2022-08-01T12:39:29;7.68;;;2.00;;
51913;SDS011;37940;53.002;6.930;2022-08-01T12:41:56;10.07;;;2.55;;
51913;SDS011;37940;53.002;6.930;2022-08-01T12:44:22;7.93;;;1.60;;
51913;SDS011;37940;53.002;6.930;2022-08-01T12:46:48;7.32;;;1.73;;
51913;SDS011;37940;53.002;6.930;2022-08-01T12:49:14;8.05;;;1.90;;
51913;SDS011;37940;53.002;6.930;2022-08-01T12:51:40;10.90;;;2.42;;
51913;SDS011;37940;53.002;6.930;2022-08-01T12:54:06;5.85;;;1.52;;
51913;SDS011;37940;53.002;6.930;2022-08-01T12:56:35;6.45;;;1.67;;
51913;SDS011;37940;53.002;6.930;2022-08-01T12:59:01;7.00;;;1.88;;
51913;SDS011;37940;53.002;6.930;2022-08-01T13:01:44;6.45;;;1.48;;
51913;SDS011;37940;53.002;6.930;2022-08-01T13:04:10;7.75;;;2.05;;
51913;SDS011;37940;53.002;6.930;2022-08-01T13:06:36;5.47;;;1.80;;
51913;SDS011;37940;53.002;6.930;2022-08-01T13:09:05;8.35;;;1.80;;
51913;SDS011;37940;53.002;6.930;2022-08-01T13:11:32;7.32;;;1.80;;
51913;SDS011;37940;53.002;6.930;2022-08-01T13:13:58;8.15;;;1.85;;
51913;SDS011;37940;53.002;6.930;2022-08-01T13:16:24;5.22;;;1.80;;
51913;SDS011;37940;53.002;6.930;2022-08-01T13:18:51;6.20;;;1.70;;
51913;SDS011;37940;53.002;6.930;2022-08-01T13:21:19;5.75;;;1.73;;
51913;SDS011;37940;53.002;6.930;2022-08-01T13:24:07;6.82;;;1.60;;
51913;SDS011;37940;53.002;6.930;2022-08-01T13:29:14;6.80;;;1.80;;
51913;SDS011;37940;53.002;6.930;2022-08-01T13:31:41;5.95;;;1.60;;
51913;SDS011;37940;53.002;6.930;2022-08-01T13:34:07;7.72;;;1.70;;
51913;SDS011;37940;53.002;6.930;2022-08-01T13:36:34;5.90;;;1.45;;
51913;SDS011;37940;53.002;6.930;2022-08-01T13:39:00;5.88;;;1.80;;
51913;SDS011;37940;53.002;6.930;2022-08-01T13:41:46;7.95;;;1.67;;
51913;SDS011;37940;53.002;6.930;2022-08-01T13:44:12;4.95;;;1.42;;
51913;SDS011;37940;53.002;6.930;2022-08-01T13:46:38;6.85;;;1.52;;
51913;SDS011;37940;53.002;6.930;2022-08-01T13:49:05;6.00;;;1.55;;
51913;SDS011;37940;53.002;6.930;2022-08-01T13:51:32;6.47;;;1.60;;
51913;SDS011;37940;53.002;6.930;2022-08-01T13:53:58;5.15;;;1.50;;
51913;SDS011;37940;53.002;6.930;2022-08-01T13:56:24;6.95;;;1.50;;
51913;SDS011;37940;53.002;6.930;2022-08-01T13:58:52;7.75;;;1.70;;
51913;SDS011;37940;53.002;6.930;2022-08-01T14:01:18;5.40;;;1.50;;
51913;SDS011;37940;53.002;6.930;2022-08-01T14:03:44;4.35;;;1.45;;
51913;SDS011;37940;53.002;6.930;2022-08-01T14:06:11;5.35;;;1.85;;
51913;SDS011;37940;53.002;6.930;2022-08-01T14:08:37;7.68;;;1.48;;
51913;SDS011;37940;53.002;6.930;2022-08-01T14:11:03;6.25;;;1.52;;
51913;SDS011;37940;53.002;6.930;2022-08-01T14:13:28;6.18;;;1.80;;
51913;SDS011;37940;53.002;6.930;2022-08-01T14:15:54;6.45;;;1.55;;
51913;SDS011;37940;53.002;6.930;2022-08-01T14:18:21;6.63;;;1.30;;
51913;SDS011;37940;53.002;6.930;2022-08-01T14:20:46;7.28;;;1.50;;
51913;SDS011;37940;53.002;6.930;2022-08-01T14:23:12;8.23;;;2.05;;
51913;SDS011;37940;53.002;6.930;2022-08-01T14:25:38;5.05;;;1.63;;
51913;SDS011;37940;53.002;6.930;2022-08-01T14:28:04;7.47;;;2.00;;
51913;SDS011;37940;53.002;6.930;2022-08-01T14:30:31;8.90;;;1.83;;
51913;SDS011;37940;53.002;6.930;2022-08-01T14:32:57;6.53;;;1.75;;
51913;SDS011;37940;53.002;6.930;2022-08-01T14:35:23;7.88;;;1.77;;
51913;SDS011;37940;53.002;6.930;2022-08-01T14:37:49;8.38;;;1.70;;
51913;SDS011;37940;53.002;6.930;2022-08-01T14:40:15;8.15;;;1.90;;
51913;SDS011;37940;53.002;6.930;2022-08-01T14:42:41;6.28;;;1.35;;
51913;SDS011;37940;53.002;6.930;2022-08-01T14:45:09;6.75;;;2.05;;
51913;SDS011;37940;53.002;6.930;2022-08-01T14:47:37;4.63;;;1.40;;
51913;SDS011;37940;53.002;6.930;2022-08-01T14:50:04;6.82;;;1.52;;
51913;SDS011;37940;53.002;6.930;2022-08-01T14:52:31;5.60;;;1.70;;
51913;SDS011;37940;53.002;6.930;2022-08-01T14:54:58;5.65;;;1.40;;
51913;SDS011;37940;53.002;6.930;2022-08-01T14:57:24;6.25;;;1.73;;
51913;SDS011;37940;53.002;6.930;2022-08-01T14:59:50;7.57;;;1.70;;
51913;SDS011;37940;53.002;6.930;2022-08-01T15:02:15;6.47;;;1.95;;
51913;SDS011;37940;53.002;6.930;2022-08-01T15:04:45;7.90;;;1.85;;
51913;SDS011;37940;53.002;6.930;2022-08-01T15:07:11;7.20;;;1.83;;
51913;SDS011;37940;53.002;6.930;2022-08-01T15:09:37;7.88;;;1.52;;
51913;SDS011;37940;53.002;6.930;2022-08-01T15:12:04;8.85;;;1.63;;
51913;SDS011;37940;53.002;6.930;2022-08-01T15:14:30;7.78;;;1.60;;
51913;SDS011;37940;53.002;6.930;2022-08-01T15:17:21;6.63;;;1.70;;
51913;SDS011;37940;53.002;6.930;2022-08-01T15:19:49;7.20;;;1.60;;
51913;SDS011;37940;53.002;6.930;2022-08-01T15:22:17;5.13;;;1.40;;
51913;SDS011;37940;53.002;6.930;2022-08-01T15:24:44;7.53;;;1.65;;
51913;SDS011;37940;53.002;6.930;2022-08-01T15:27:09;4.60;;;1.58;;
51913;SDS011;37940;53.002;6.930;2022-08-01T15:29:36;5.55;;;1.50;;
51913;SDS011;37940;53.002;6.930;2022-08-01T15:32:02;8.60;;;1.80;;
51913;SDS011;37940;53.002;6.930;2022-08-01T15:34:29;7.20;;;1.65;;